Time;durP1;ratioP1;P1;durP2;ratioP2;P2;SDS_P1;SDS_P2;PMS_P1;PMS_P2;Temp;Humidity;BMP_temperature;BMP_pressure;BME280_temperature;BME280_humidity;BME280_pressure;Samples;Min_cycle;Max_cycle;Signal;HPM_P1;HPM_P2
2022/04/06 00:00:54;;;;;;;3.38;1.45;;;18.10;99.90;;;;;;5071707;28;20129;-74
2022/04/06 00:03:21;;;;;;;4.53;1.73;;;18.00;99.90;;;;;;5071608;28;20044;-75
2022/04/06 00:05:49;;;;;;;4.22;2.00;;;17.70;99.90;;;;;;5070137;28;20056;-74
2022/04/06 00:08:16;;;;;;;4.13;1.35;;;17.70;99.90;;;;;;5071587;28;20078;-74
2022/04/06 00:10:43;;;;;;;3.03;1.83;;;17.60;99.90;;;;;;5071521;28;20013;-76
2022/04/06 00:13:11;;;;;;;3.47;1.63;;;17.70;99.90;;;;;;5070238;28;20501;-74
2022/04/06 00:15:38;;;;;;;5.13;2.35;;;17.60;99.90;;;;;;5070093;28;20116;-74
2022/04/06 00:18:06;;;;;;;4.53;1.75;;;17.50;99.90;;;;;;5070237;28;20017;-74
2022/04/06 00:20:33;;;;;;;4.30;1.80;;;17.60;99.90;;;;;;5070181;28;20049;-74
2022/04/06 00:23:00;;;;;;;6.47;2.67;;;17.70;99.90;;;;;;5070062;28;20056;-74
2022/04/06 00:25:28;;;;;;;5.38;2.53;;;17.60;99.90;;;;;;5071243;28;20078;-74
2022/04/06 00:27:55;;;;;;;5.43;2.63;;;17.70;99.90;;;;;;5069902;28;20039;-75
2022/04/06 00:30:22;;;;;;;4.28;2.17;;;17.70;99.90;;;;;;5070942;28;20119;-74
2022/04/06 00:32:50;;;;;;;4.55;2.70;;;17.60;99.90;;;;;;5074904;28;20067;-74
2022/04/06 00:35:29;;;;;;;7.28;2.83;;;17.70;99.90;;;;;;5074682;28;20078;-74
2022/04/06 00:38:03;;;;;;;5.05;2.40;;;17.70;99.90;;;;;;5074843;28;20017;-74
2022/04/06 00:40:33;;;;;;;7.10;2.90;;;17.60;99.90;;;;;;5074750;28;20050;-74
2022/04/06 00:43:01;;;;;;;6.55;2.92;;;17.60;99.90;;;;;;5073240;28;20016;-74
2022/04/06 00:45:28;;;;;;;6.35;3.08;;;17.60;99.90;;;;;;5074520;28;20465;-74
2022/04/06 00:47:56;;;;;;;8.70;3.42;;;17.70;99.90;;;;;;5073183;28;20077;-75
2022/04/06 00:50:26;;;;;;;7.30;3.42;;;17.70;99.90;;;;;;5074480;28;20035;-74
2022/04/06 00:52:57;;;;;;;6.50;3.05;;;17.60;99.90;;;;;;5073289;28;20032;-74
2022/04/06 00:55:25;;;;;;;;;;;17.60;99.90;;;;;;5073614;28;20037;-74
2022/04/06 00:57:52;;;;;;;4.93;2.80;;;17.60;99.90;;;;;;5074583;28;20386;-74
2022/04/06 01:00:20;;;;;;;4.68;2.50;;;17.70;99.90;;;;;;5073091;28;20021;-74
2022/04/06 01:02:48;;;;;;;6.35;2.90;;;17.70;99.90;;;;;;5073089;28;20107;-74
2022/04/06 01:05:15;;;;;;;4.70;2.40;;;17.70;99.90;;;;;;5074339;28;20044;-74
2022/04/06 01:07:48;;;;;;;5.28;2.47;;;17.70;99.90;;;;;;5074594;28;20032;-74
2022/04/06 01:10:16;;;;;;;5.15;2.33;;;17.50;99.90;;;;;;5074358;28;20044;-75
2022/04/06 01:12:47;;;;;;;6.30;3.42;;;17.50;99.90;;;;;;5073009;28;20027;-75
2022/04/06 01:15:15;;;;;;;5.95;2.83;;;17.50;99.90;;;;;;5072880;28;20051;-74
2022/04/06 01:17:43;;;;;;;4.28;2.25;;;17.60;99.90;;;;;;5072802;28;20029;-74
2022/04/06 01:20:12;;;;;;;7.43;3.33;;;17.50;99.90;;;;;;5072874;28;20021;-75
2022/04/06 01:22:40;;;;;;;4.88;2.40;;;17.50;99.90;;;;;;5072951;28;20028;-74
2022/04/06 01:25:09;;;;;;;4.68;2.08;;;17.50;99.90;;;;;;5072871;28;20024;-74
2022/04/06 01:27:36;;;;;;;2.95;1.70;;;17.50;99.90;;;;;;5074151;28;20469;-74
2022/04/06 01:30:04;;;;;;;4.30;1.60;;;17.50;99.90;;;;;;5074141;28;20103;-74
2022/04/06 01:32:32;;;;;;;1.55;1.25;;;17.50;99.90;;;;;;5073995;28;20058;-74
2022/04/06 01:35:00;;;;;;;2.13;1.20;;;17.50;99.90;;;;;;5072428;28;20035;-74
2022/04/06 01:37:28;;;;;;;2.72;1.85;;;17.60;99.90;;;;;;5072446;28;20021;-74
2022/04/06 01:39:56;;;;;;;6.63;3.00;;;17.50;99.90;;;;;;5073787;28;20035;-74
2022/04/06 01:42:23;;;;;;;3.25;1.60;;;17.60;99.90;;;;;;5072518;28;20032;-74
2022/04/06 01:44:52;;;;;;;5.55;2.60;;;17.60;99.90;;;;;;5073822;28;20489;-74
2022/04/06 01:47:21;;;;;;;3.33;0.88;;;17.70;99.90;;;;;;5073745;28;20024;-74
2022/04/06 01:52:35;;;;;;;3.22;1.55;;;17.70;99.90;;;;;;5073670;28;20127;-73
2022/04/06 01:55:06;;;;;;;2.63;1.30;;;17.70;99.90;;;;;;5073263;28;20099;-74
2022/04/06 01:57:34;;;;;;;3.22;1.67;;;17.80;99.90;;;;;;5073146;28;20095;-74
2022/04/06 02:00:04;;;;;;;4.55;1.75;;;17.80;99.90;;;;;;5073423;28;20051;-74
2022/04/06 02:02:32;;;;;;;2.28;1.27;;;18.00;99.90;;;;;;5073344;28;20021;-73
2022/04/06 02:05:00;;;;;;;2.75;1.30;;;18.00;99.90;;;;;;5071761;28;20048;-74
2022/04/06 02:07:28;;;;;;;3.45;1.70;;;18.00;99.90;;;;;;5073357;28;20028;-74
2022/04/06 02:09:58;;;;;;;4.65;1.98;;;18.00;99.90;;;;;;5073097;28;20028;-75
2022/04/06 02:12:27;;;;;;;9.10;2.92;;;18.10;99.90;;;;;;5071867;28;20056;-74
2022/04/06 02:14:54;;;;;;;10.05;3.00;;;18.20;99.90;;;;;;5055946;28;20060;-75
2022/04/06 02:17:22;;;;;;;7.75;2.72;;;18.30;99.90;;;;;;5073018;28;20021;-74
2022/04/06 02:19:49;;;;;;;10.25;3.17;;;18.30;99.90;;;;;;5071769;28;20031;-74
2022/04/06 02:22:18;;;;;;;8.57;3.30;;;18.40;99.90;;;;;;5071594;28;20384;-75
2022/04/06 02:24:45;;;;;;;7.13;2.60;;;18.40;99.90;;;;;;5071704;28;20028;-74
2022/04/06 02:27:13;;;;;;;9.00;2.80;;;18.40;99.90;;;;;;5071538;28;20117;-74
2022/04/06 02:29:41;;;;;;;8.13;3.05;;;18.50;99.90;;;;;;5072924;28;20514;-74
2022/04/06 02:32:09;;;;;;;9.18;2.55;;;18.50;99.90;;;;;;5072743;28;20029;-75
2022/04/06 02:34:37;;;;;;;7.88;2.95;;;18.50;99.90;;;;;;5072707;28;20392;-76
2022/04/06 02:37:05;;;;;;;8.27;3.70;;;18.60;99.90;;;;;;5071270;28;20077;-75
2022/04/06 02:39:33;;;;;;;9.13;3.22;;;18.60;99.90;;;;;;5072808;28;20023;-75
2022/04/06 02:42:01;;;;;;;8.35;2.75;;;18.60;99.90;;;;;;5071267;28;20025;-75
2022/04/06 02:44:28;;;;;;;8.02;2.20;;;18.60;99.90;;;;;;5071121;28;20473;-76
2022/04/06 02:46:55;;;;;;;7.53;2.95;;;18.60;99.90;;;;;;5072641;28;20025;-75
2022/04/06 02:49:23;;;;;;;8.43;3.45;;;18.60;99.90;;;;;;5072462;28;20103;-75
2022/04/06 02:51:50;;;;;;;11.70;3.80;;;18.50;99.90;;;;;;5072447;28;20016;-75
2022/04/06 02:54:18;;;;;;;9.07;2.70;;;18.60;99.90;;;;;;5071971;28;20040;-76
2022/04/06 02:56:46;;;;;;;9.05;3.10;;;18.50;99.90;;;;;;5071198;28;20028;-75
2022/04/06 02:59:13;;;;;;;12.05;3.90;;;18.50;99.90;;;;;;5070938;28;20028;-75
2022/04/06 03:01:40;;;;;;;7.20;2.60;;;18.60;99.90;;;;;;5072349;28;20120;-77
2022/04/06 03:04:08;;;;;;;9.57;2.67;;;18.50;99.90;;;;;;5072132;28;20044;-77
2022/04/06 03:06:37;;;;;;;6.93;2.42;;;18.40;99.90;;;;;;5071009;28;20032;-77
2022/04/06 03:09:04;;;;;;;9.10;2.55;;;18.40;99.90;;;;;;5070824;28;20024;-74
2022/04/06 03:11:32;;;;;;;9.13;1.92;;;18.50;99.90;;;;;;5072565;28;20020;-75
2022/04/06 03:13:59;;;;;;;6.53;1.80;;;18.40;99.90;;;;;;5070779;28;20029;-75
2022/04/06 03:16:26;;;;;;;10.98;2.10;;;18.40;99.90;;;;;;5070900;28;20035;-75
2022/04/06 03:18:54;;;;;;;8.07;2.25;;;18.40;99.90;;;;;;5072146;28;20499;-75
2022/04/06 03:21:21;;;;;;;7.05;1.73;;;18.30;99.90;;;;;;5072176;28;20105;-76
2022/04/06 03:23:48;;;;;;;10.05;2.00;;;18.30;99.90;;;;;;5070815;28;20020;-75
2022/04/06 03:26:16;;;;;;;5.97;1.80;;;18.40;99.90;;;;;;5072083;28;20027;-75
2022/04/06 03:28:43;;;;;;;6.55;1.88;;;18.40;99.90;;;;;;5072086;28;20024;-74
2022/04/06 03:31:10;;;;;;;8.90;1.52;;;18.40;99.90;;;;;;5070859;28;20021;-74
2022/04/06 03:33:38;;;;;;;3.85;1.23;;;18.40;99.90;;;;;;5070638;28;20046;-75
2022/04/06 03:36:05;;;;;;;7.60;1.52;;;18.40;99.90;;;;;;5072138;28;20362;-74
2022/04/06 03:38:33;;;;;;;7.05;1.73;;;18.40;99.90;;;;;;5070672;28;20373;-75
2022/04/06 03:41:00;;;;;;;5.15;1.27;;;18.40;99.90;;;;;;5072104;28;20035;-75
2022/04/06 03:43:29;;;;;;;3.97;1.42;;;18.40;99.90;;;;;;5070666;28;20020;-75
2022/04/06 03:45:56;;;;;;;7.93;2.08;;;18.40;99.90;;;;;;5071879;28;20021;-75
2022/04/06 03:48:23;;;;;;;5.47;1.35;;;18.50;99.90;;;;;;5071970;28;20021;-76
2022/04/06 03:50:51;;;;;;;6.28;1.98;;;18.50;99.90;;;;;;5071835;28;20044;-76
2022/04/06 03:53:18;;;;;;;5.80;1.85;;;18.50;99.90;;;;;;5070400;28;20020;-75
2022/04/06 03:55:46;;;;;;;6.20;1.40;;;18.50;99.90;;;;;;5071888;28;20492;-74
2022/04/06 03:58:13;;;;;;;6.10;1.40;;;18.50;99.90;;;;;;5071943;28;20069;-75
2022/04/06 04:00:41;;;;;;;7.20;1.73;;;18.50;99.90;;;;;;5071052;28;20021;-76
2022/04/06 04:03:09;;;;;;;6.10;1.60;;;18.50;99.90;;;;;;5070506;28;20115;-76
2022/04/06 04:05:36;;;;;;;6.78;1.50;;;18.60;99.90;;;;;;5071785;28;20409;-77
2022/04/06 04:08:04;;;;;;;5.57;1.48;;;18.60;99.90;;;;;;5074467;28;20487;-75
2022/04/06 04:10:32;;;;;;;5.93;1.55;;;18.70;99.90;;;;;;5075559;28;20036;-76
2022/04/06 04:12:59;;;;;;;5.45;1.90;;;18.70;99.90;;;;;;5074214;28;20035;-77
2022/04/06 04:15:27;;;;;;;5.93;1.48;;;18.80;99.90;;;;;;5074040;28;20036;-76
2022/04/06 04:17:54;;;;;;;7.85;1.70;;;18.70;99.90;;;;;;5074103;28;20025;-77
2022/04/06 04:20:21;;;;;;;8.38;1.90;;;18.70;99.90;;;;;;5075339;28;20076;-76
2022/04/06 04:22:49;;;;;;;6.47;1.40;;;18.70;99.90;;;;;;5075343;28;20021;-76
2022/04/06 04:25:16;;;;;;;5.03;1.45;;;18.70;99.90;;;;;;5073818;28;20024;-77
2022/04/06 04:27:44;;;;;;;5.25;1.70;;;18.70;99.90;;;;;;5073845;28;20070;-75
2022/04/06 04:30:11;;;;;;;5.25;1.92;;;18.70;99.90;;;;;;5075140;28;20031;-76
2022/04/06 04:32:42;;;;;;;6.65;1.98;;;18.70;99.90;;;;;;5075263;28;20122;-75
2022/04/06 04:35:09;;;;;;;;;;;18.70;99.90;;;;;;5075556;28;20031;-76
2022/04/06 04:37:37;;;;;;;7.57;2.03;;;18.80;99.90;;;;;;5073815;28;19912;-76
2022/04/06 04:40:05;;;;;;;4.70;1.70;;;18.80;99.90;;;;;;5074848;28;20034;-76
2022/04/06 04:42:33;;;;;;;5.07;1.77;;;18.90;99.90;;;;;;5075176;28;20054;-76
2022/04/06 04:45:00;;;;;;;9.23;1.75;;;18.90;99.90;;;;;;5075009;28;20020;-76
2022/04/06 04:47:30;;;;;;;4.93;1.38;;;19.00;99.90;;;;;;5073697;28;20068;-77
2022/04/06 04:49:58;;;;;;;7.05;1.77;;;19.00;99.90;;;;;;5074911;28;20055;-76
2022/04/06 04:52:26;;;;;;;6.43;1.60;;;19.10;99.90;;;;;;5074792;28;20021;-76
2022/04/06 04:54:53;;;;;;;7.50;1.80;;;19.10;99.90;;;;;;5073307;28;20021;-76
2022/04/06 04:57:21;;;;;;;4.63;1.63;;;19.10;99.90;;;;;;5073458;28;20476;-76
2022/04/06 04:59:52;;;;;;;4.10;1.52;;;19.10;99.90;;;;;;5074423;28;20021;-76
2022/04/06 05:02:20;;;;;;;5.68;1.63;;;19.10;99.90;;;;;;5074674;28;20024;-76
2022/04/06 05:04:47;;;;;;;6.82;1.90;;;19.10;99.90;;;;;;5073055;28;20492;-76
2022/04/06 05:07:15;;;;;;;6.03;1.52;;;19.20;99.90;;;;;;5074426;28;20024;-76
2022/04/06 05:09:42;;;;;;;4.53;2.10;;;19.30;99.90;;;;;;5074619;28;20021;-76
2022/04/06 05:12:10;;;;;;;8.98;2.08;;;19.30;99.90;;;;;;5074460;28;20070;-75
2022/04/06 05:14:37;;;;;;;10.48;2.33;;;19.30;99.90;;;;;;5073261;28;20036;-76
2022/04/06 05:17:05;;;;;;;6.53;1.85;;;19.30;99.90;;;;;;5073293;28;20473;-77
2022/04/06 05:19:32;;;;;;;6.72;2.63;;;19.30;99.90;;;;;;5073091;28;20023;-76
2022/04/06 05:21:59;;;;;;;5.32;1.90;;;19.20;99.90;;;;;;5076839;28;20048;-76
2022/04/06 05:24:27;;;;;;;7.78;1.90;;;19.20;99.90;;;;;;5074572;28;20031;-76
2022/04/06 05:26:54;;;;;;;6.75;2.28;;;19.30;99.90;;;;;;5075033;28;20397;-76
2022/04/06 05:29:22;;;;;;;7.07;2.10;;;19.30;99.90;;;;;;5073656;28;20031;-75
2022/04/06 05:31:49;;;;;;;5.57;1.67;;;19.30;99.90;;;;;;5077532;28;20103;-76
2022/04/06 05:34:16;;;;;;;8.02;1.52;;;19.20;99.90;;;;;;5074394;28;20024;-75
2022/04/06 05:36:44;;;;;;;5.95;1.83;;;19.10;99.90;;;;;;5074055;28;20013;-76
2022/04/06 05:39:12;;;;;;;6.88;2.08;;;19.00;99.90;;;;;;5074239;28;20424;-74
2022/04/06 05:41:40;;;;;;;6.97;1.60;;;18.90;99.90;;;;;;5074395;28;20515;-75
2022/04/06 05:44:07;;;;;;;5.80;1.33;;;18.80;99.90;;;;;;5072483;28;20496;-74
2022/04/06 05:46:35;;;;;;;6.32;1.25;;;18.80;99.90;;;;;;5073644;28;20020;-75
2022/04/06 05:49:02;;;;;;;6.78;1.98;;;18.70;99.90;;;;;;5072257;28;20025;-74
2022/04/06 05:51:30;;;;;;;5.45;1.50;;;18.70;99.90;;;;;;5072216;28;20025;-73
2022/04/06 05:53:57;;;;;;;7.30;1.70;;;18.70;99.90;;;;;;5073387;28;20024;-74
2022/04/06 05:56:24;;;;;;;5.13;1.70;;;18.70;99.90;;;;;;5073505;28;20021;-75
2022/04/06 05:58:52;;;;;;;9.30;1.90;;;18.70;99.90;;;;;;5072063;28;20389;-75
2022/04/06 06:01:19;;;;;;;7.10;1.85;;;18.60;99.90;;;;;;5072101;28;20447;-76
2022/04/06 06:03:47;;;;;;;5.65;1.50;;;18.50;99.90;;;;;;5073157;28;20412;-76
2022/04/06 06:06:14;;;;;;;5.35;1.75;;;18.50;99.90;;;;;;5072054;28;20051;-77
2022/04/06 06:08:42;;;;;;;5.07;1.75;;;18.60;99.90;;;;;;5071923;28;20024;-76
2022/04/06 06:11:09;;;;;;;6.78;1.67;;;18.50;99.90;;;;;;5073210;28;20033;-76
2022/04/06 06:13:36;;;;;;;6.05;1.40;;;18.60;99.90;;;;;;5071803;28;20056;-76
2022/04/06 06:16:05;;;;;;;6.15;1.58;;;18.50;99.90;;;;;;5073097;28;20024;-77
2022/04/06 06:18:33;;;;;;;9.32;2.13;;;18.60;99.90;;;;;;5073099;28;20020;-77
2022/04/06 06:21:01;;;;;;;5.15;1.65;;;18.60;99.90;;;;;;5073022;28;20017;-78
2022/04/06 06:23:29;;;;;;;8.40;1.80;;;18.60;99.90;;;;;;5071699;28;20028;-77
2022/04/06 06:25:56;;;;;;;4.55;1.65;;;18.50;99.90;;;;;;5073043;28;20376;-76
2022/04/06 06:28:24;;;;;;;3.40;1.70;;;18.60;99.90;;;;;;5070873;28;20043;-77
2022/04/06 06:30:51;;;;;;;6.20;1.90;;;18.60;99.90;;;;;;5072846;28;20171;-77
2022/04/06 06:33:19;;;;;;;9.13;2.22;;;18.50;99.90;;;;;;5072771;28;20020;-76
2022/04/06 06:35:46;;;;;;;5.93;2.05;;;18.50;99.90;;;;;;5071345;28;20028;-76
2022/04/06 06:38:13;;;;;;;4.20;1.63;;;18.60;99.90;;;;;;5071363;28;20051;-77
2022/04/06 06:40:41;;;;;;;5.68;1.60;;;18.60;99.90;;;;;;5072771;28;20039;-76
2022/04/06 06:43:08;;;;;;;4.07;1.60;;;18.60;99.90;;;;;;5072709;28;20028;-76
2022/04/06 06:45:35;;;;;;;4.03;1.70;;;18.50;99.90;;;;;;5072602;28;20020;-76
2022/04/06 06:48:03;;;;;;;6.13;2.20;;;18.50;99.90;;;;;;5072692;28;20017;-76
2022/04/06 06:50:31;;;;;;;4.20;1.60;;;18.50;99.90;;;;;;5070874;28;20109;-75
2022/04/06 06:52:58;;;;;;;5.57;2.08;;;18.50;99.90;;;;;;5072653;28;20047;-75
2022/04/06 06:55:26;;;;;;;6.18;2.50;;;18.60;99.90;;;;;;5072264;28;20108;-75
2022/04/06 06:57:53;;;;;;;6.25;1.98;;;18.50;99.90;;;;;;5072390;28;20372;-76
2022/04/06 07:00:20;;;;;;;5.88;2.00;;;18.60;99.90;;;;;;5072433;28;20025;-77
2022/04/06 07:02:48;;;;;;;4.47;1.77;;;18.50;99.90;;;;;;5072399;28;20100;-77
2022/04/06 07:05:15;;;;;;;5.65;1.52;;;18.50;99.90;;;;;;5072059;28;20048;-76
2022/04/06 07:07:53;;;;;;;4.88;1.70;;;18.50;99.90;;;;;;5071086;28;20032;-75
2022/04/06 07:10:25;;;;;;;6.78;2.65;;;18.50;99.90;;;;;;5071027;28;20089;-77
2022/04/06 07:12:53;;;;;;;7.03;2.53;;;18.40;99.90;;;;;;5072692;28;20095;-76
2022/04/06 07:15:22;;;;;;;4.13;2.20;;;18.50;99.90;;;;;;5072076;28;20037;-76
2022/04/06 07:17:53;;;;;;;3.50;1.90;;;18.40;99.90;;;;;;5071216;28;20025;-76
2022/04/06 07:20:25;;;;;;;4.38;1.90;;;18.30;99.90;;;;;;5071312;28;20485;-76
2022/04/06 07:22:52;;;;;;;3.17;1.70;;;18.30;99.90;;;;;;5071157;28;20089;-77
2022/04/06 07:25:21;;;;;;;3.17;1.88;;;18.30;99.90;;;;;;5070874;28;20472;-76
2022/04/06 07:27:48;;;;;;;3.08;2.15;;;18.20;99.90;;;;;;5070903;28;20473;-76
2022/04/06 07:30:16;;;;;;;5.18;2.28;;;18.10;99.90;;;;;;5072062;28;20050;-76
2022/04/06 07:32:44;;;;;;;2.63;1.60;;;18.20;99.90;;;;;;5071006;28;20393;-75
2022/04/06 07:35:11;;;;;;;3.80;1.50;;;18.10;99.90;;;;;;5070839;28;20040;-76
2022/04/06 07:37:39;;;;;;;4.90;1.83;;;18.10;99.90;;;;;;5071100;28;20029;-77
2022/04/06 07:40:08;;;;;;;2.58;1.40;;;18.10;99.90;;;;;;5073426;28;20160;-78
2022/04/06 07:42:37;;;;;;;3.25;1.75;;;18.10;99.90;;;;;;5076412;28;20052;-78
2022/04/06 07:45:09;;;;;;;3.55;1.45;;;18.10;99.90;;;;;;5075341;28;20062;-77
2022/04/06 07:47:40;;;;;;;8.45;2.28;;;18.10;99.90;;;;;;5074985;28;20035;-78
2022/04/06 07:50:09;;;;;;;6.18;2.67;;;18.20;99.90;;;;;;5074320;28;20025;-78
2022/04/06 07:52:37;;;;;;;5.60;2.60;;;18.20;99.90;;;;;;5074239;28;20036;-78
2022/04/06 07:55:07;;;;;;;4.28;2.65;;;18.20;99.90;;;;;;5074368;28;20492;-79
2022/04/06 07:57:36;;;;;;;6.55;3.15;;;18.20;99.90;;;;;;5074223;28;20039;-76
2022/04/06 08:00:11;;;;;;;5.88;3.22;;;18.10;99.90;;;;;;5075803;28;20028;-79
2022/04/06 08:02:40;;;;;;;5.40;2.17;;;18.10;99.90;;;;;;5075879;28;20066;-79
2022/04/06 08:05:07;;;;;;;6.05;1.70;;;18.10;99.90;;;;;;5075779;28;20070;-79
2022/04/06 08:07:39;;;;;;;4.40;1.70;;;18.00;99.90;;;;;;5074370;28;20032;-80
2022/04/06 08:10:09;;;;;;;6.72;2.03;;;18.00;99.90;;;;;;5073859;28;20082;-79
2022/04/06 08:12:37;;;;;;;6.43;2.60;;;17.90;99.90;;;;;;5075035;28;20486;-78
2022/04/06 08:15:05;;;;;;;6.43;3.42;;;18.00;99.90;;;;;;5074945;28;20079;-79
2022/04/06 08:17:41;;;;;;;4.45;1.73;;;17.90;99.90;;;;;;5073565;28;20141;-78
2022/04/06 08:20:11;;;;;;;7.68;1.85;;;18.00;99.90;;;;;;5073352;28;20025;-78
2022/04/06 08:22:43;;;;;;;4.90;1.90;;;18.00;99.90;;;;;;5074130;28;20493;-76
2022/04/06 08:25:11;;;;;;;5.65;2.40;;;17.90;99.90;;;;;;5073508;28;20025;-78
2022/04/06 08:27:41;;;;;;;7.93;2.50;;;17.90;99.90;;;;;;5073626;28;20025;-79
2022/04/06 08:30:10;;;;;;;6.80;2.63;;;18.00;99.90;;;;;;5073508;28;20029;-78
2022/04/06 08:32:38;;;;;;;6.70;2.90;;;17.90;99.90;;;;;;5075033;28;20035;-78
2022/04/06 08:35:08;;;;;;;6.72;2.90;;;17.90;99.90;;;;;;5073554;28;20062;-79
2022/04/06 08:37:38;;;;;;;5.97;3.38;;;17.90;99.90;;;;;;5073908;28;20028;-78
2022/04/06 08:40:11;;;;;;;7.78;3.38;;;17.80;99.90;;;;;;5073837;28;20040;-78
2022/04/06 08:42:39;;;;;;;6.53;2.88;;;17.90;99.90;;;;;;5073800;28;20025;-77
2022/04/06 08:45:08;;;;;;;5.72;2.72;;;17.80;99.90;;;;;;5073785;28;20115;-77
2022/04/06 08:47:36;;;;;;;6.22;2.45;;;17.80;99.90;;;;;;5073729;28;20488;-77
2022/04/06 08:50:06;;;;;;;6.35;3.83;;;17.80;99.90;;;;;;5073545;28;20385;-75
2022/04/06 08:52:38;;;;;;;9.02;4.47;;;17.80;99.90;;;;;;5074022;28;20028;-80
2022/04/06 08:55:06;;;;;;;7.72;3.90;;;17.80;99.90;;;;;;5074738;28;20473;-81
2022/04/06 08:57:33;;;;;;;5.50;2.30;;;17.80;99.90;;;;;;5073531;28;20035;-77
2022/04/06 09:00:00;;;;;;;7.22;2.10;;;17.80;99.90;;;;;;5073254;28;20060;-78
2022/04/06 09:02:28;;;;;;;8.10;2.40;;;17.70;99.90;;;;;;5074753;28;20070;-76
2022/04/06 09:04:56;;;;;;;3.97;2.20;;;17.70;99.90;;;;;;5073084;28;20095;-77
2022/04/06 09:07:26;;;;;;;9.27;2.88;;;17.70;99.90;;;;;;5074432;28;20049;-77
2022/04/06 09:09:55;;;;;;;3.72;1.98;;;17.60;99.90;;;;;;5073109;28;20058;-75
2022/04/06 09:12:25;;;;;;;4.60;2.40;;;17.70;99.90;;;;;;5074521;28;20024;-75
2022/04/06 09:15:13;;;;;;;5.47;2.25;;;17.70;99.90;;;;;;5073009;28;20116;-76
2022/04/06 09:17:45;;;;;;;5.57;3.15;;;17.70;99.90;;;;;;5072959;28;20115;-77
2022/04/06 09:20:14;;;;;;;5.63;3.15;;;17.70;99.90;;;;;;5074357;28;20069;-75
2022/04/06 09:22:42;;;;;;;4.70;2.97;;;17.70;99.90;;;;;;5074295;28;20032;-76
2022/04/06 09:25:10;;;;;;;6.38;3.60;;;17.80;99.90;;;;;;5074274;28;20023;-75
2022/04/06 09:27:41;;;;;;;5.90;2.83;;;17.80;99.90;;;;;;5074168;28;20028;-79
2022/04/06 09:30:10;;;;;;;3.28;2.40;;;17.80;99.90;;;;;;5073079;28;20037;-77
2022/04/06 09:32:37;;;;;;;6.47;2.47;;;17.80;99.90;;;;;;5074029;28;20059;-77
2022/04/06 09:35:37;;;;;;;6.55;2.50;;;17.80;99.90;;;;;;5073720;28;20115;-77
2022/04/06 09:38:13;;;;;;;5.10;2.80;;;17.80;99.90;;;;;;5061786;28;20051;-76
2022/04/06 09:40:41;;;;;;;4.57;1.73;;;17.80;99.90;;;;;;5073882;28;20028;-77
2022/04/06 09:43:23;;;;;;;4.57;1.70;;;17.70;99.90;;;;;;5072727;28;20028;-77
2022/04/06 09:48:56;;;;;;;3.10;1.33;;;17.70;99.90;;;;;;5073850;28;20405;-76
2022/04/06 09:51:24;;;;;;;2.67;1.38;;;17.70;99.90;;;;;;5072511;28;20024;-76
2022/04/06 09:53:53;;;;;;;3.65;1.75;;;17.70;99.90;;;;;;5073352;28;20031;-77
2022/04/06 09:56:21;;;;;;;3.75;2.00;;;17.80;99.90;;;;;;5073570;28;20052;-76
2022/04/06 09:58:49;;;;;;;2.75;1.42;;;17.70;99.90;;;;;;5073703;28;20061;-75
2022/04/06 10:01:18;;;;;;;2.42;1.55;;;17.50;99.90;;;;;;5073759;28;20067;-78
2022/04/06 10:03:49;;;;;;;5.28;1.33;;;17.60;99.90;;;;;;5070871;28;20049;-76
2022/04/06 10:06:17;;;;;;;4.65;1.88;;;17.60;99.90;;;;;;5072413;28;20027;-77
2022/04/06 10:08:45;;;;;;;2.42;1.33;;;17.50;99.90;;;;;;5072240;28;20057;-76
2022/04/06 10:11:13;;;;;;;2.45;1.00;;;17.50;99.90;;;;;;5074047;28;20119;-76
2022/04/06 10:13:41;;;;;;;2.65;1.20;;;17.40;99.90;;;;;;5072230;28;20020;-77
2022/04/06 10:16:11;;;;;;;3.35;1.20;;;17.40;99.90;;;;;;5073897;28;20020;-77
2022/04/06 10:18:41;;;;;;;3.28;1.23;;;17.40;99.90;;;;;;5074972;28;20452;-77
2022/04/06 10:21:45;;;;;;;2.33;1.20;;;17.40;99.90;;;;;;5072896;28;20024;-78
2022/04/06 10:24:31;;;;;;;2.25;1.17;;;17.40;99.90;;;;;;5070095;28;20035;-78
2022/04/06 10:27:07;;;;;;;2.83;1.50;;;17.40;99.90;;;;;;5072172;28;20029;-77
2022/04/06 10:30:12;;;;;;;1.63;0.85;;;17.30;99.90;;;;;;5073645;28;20028;-77
2022/04/06 10:32:41;;;;;;;1.25;0.90;;;17.30;99.90;;;;;;5073195;28;20024;-76
2022/04/06 10:35:37;;;;;;;2.67;1.58;;;17.30;99.90;;;;;;5071644;28;20028;-75
2022/04/06 10:38:05;;;;;;;2.42;1.67;;;17.30;99.90;;;;;;5070893;28;20045;-76
2022/04/06 10:40:47;;;;;;;5.78;1.58;;;17.30;99.90;;;;;;5072906;28;20024;-76
2022/04/06 10:43:39;;;;;;;3.70;1.75;;;17.30;99.90;;;;;;5071422;28;20482;-75
2022/04/06 10:46:19;;;;;;;3.00;1.45;;;17.30;99.90;;;;;;5071340;28;20032;-77
2022/04/06 10:49:15;;;;;;;3.15;1.80;;;17.30;99.90;;;;;;5071316;28;20401;-76
2022/04/06 10:51:45;;;;;;;3.60;2.05;;;17.30;99.90;;;;;;5072777;28;20020;-75
2022/04/06 10:54:16;;;;;;;3.28;1.85;;;17.40;99.90;;;;;;5072904;28;20380;-75
2022/04/06 10:56:55;;;;;;;2.10;1.67;;;17.40;99.90;;;;;;5071368;28;20107;-74
2022/04/06 10:59:29;;;;;;;2.35;1.83;;;17.40;99.90;;;;;;5072481;28;20485;-75
2022/04/06 11:02:19;;;;;;;4.55;2.60;;;17.40;99.90;;;;;;5071114;28;20476;-75
2022/04/06 11:04:48;;;;;;;3.85;2.63;;;17.40;99.90;;;;;;5070872;28;20048;-75
2022/04/06 11:10:31;;;;;;;2.33;1.80;;;17.30;99.90;;;;;;5072587;28;20094;-75
2022/04/06 11:13:06;;;;;;;3.25;2.15;;;17.30;99.90;;;;;;5070755;28;20111;-75
2022/04/06 11:15:40;;;;;;;2.38;2.00;;;17.30;99.90;;;;;;5070523;28;20052;-75
2022/04/06 11:18:45;;;;;;;3.28;2.22;;;17.30;99.90;;;;;;5072281;28;20025;-75
2022/04/06 11:21:14;;;;;;;3.08;2.60;;;17.30;99.90;;;;;;5070851;28;20490;-76
2022/04/06 11:23:42;;;;;;;2.75;2.55;;;17.30;99.90;;;;;;5070903;28;20017;-76
2022/04/06 11:26:10;;;;;;;4.63;3.00;;;17.20;99.90;;;;;;5071986;28;20017;-75
2022/04/06 11:28:37;;;;;;;3.08;2.75;;;17.20;99.90;;;;;;5072170;28;20035;-75
2022/04/06 11:31:05;;;;;;;4.55;2.92;;;17.20;99.90;;;;;;5070784;28;20374;-76
2022/04/06 11:33:42;;;;;;;2.97;2.70;;;17.20;99.90;;;;;;5070745;28;20017;-76
2022/04/06 11:36:18;;;;;;;3.55;3.00;;;17.20;99.90;;;;;;5072146;28;20481;-76
2022/04/06 11:38:52;;;;;;;3.53;2.80;;;17.20;99.90;;;;;;5072197;28;20099;-77
2022/04/06 11:41:19;;;;;;;5.63;3.20;;;17.30;99.90;;;;;;5072066;28;20021;-77
2022/04/06 11:43:48;;;;;;;3.25;2.95;;;17.30;99.90;;;;;;5072129;28;20052;-77
2022/04/06 11:46:15;;;;;;;3.95;3.00;;;17.30;99.90;;;;;;5071894;28;20104;-75
2022/04/06 11:48:45;;;;;;;5.30;3.10;;;17.40;99.90;;;;;;5070658;28;20039;-75
2022/04/06 11:51:13;;;;;;;3.88;3.25;;;17.40;99.90;;;;;;5070690;28;20070;-75
2022/04/06 11:53:40;;;;;;;3.45;3.15;;;17.50;99.90;;;;;;5070451;28;20059;-74
2022/04/06 11:56:08;;;;;;;4.05;2.90;;;17.50;99.90;;;;;;5070469;28;20032;-74
2022/04/06 11:58:40;;;;;;;4.88;4.10;;;17.50;99.90;;;;;;5070446;28;20016;-75
2022/04/06 12:01:09;;;;;;;4.45;3.38;;;17.50;99.90;;;;;;5070313;28;20115;-74
2022/04/06 12:03:42;;;;;;;3.55;3.25;;;17.40;99.90;;;;;;5071516;28;20101;-74
2022/04/06 12:06:16;;;;;;;4.72;2.90;;;17.40;99.90;;;;;;5071780;28;20203;-74
2022/04/06 12:08:47;;;;;;;4.18;3.50;;;17.40;99.90;;;;;;5070448;28;20028;-74
2022/04/06 12:11:19;;;;;;;4.35;3.47;;;17.40;99.90;;;;;;5071740;28;20043;-75
2022/04/06 12:13:47;;;;;;;4.60;4.20;;;17.40;99.90;;;;;;5070007;28;20020;-75
2022/04/06 12:16:15;;;;;;;5.97;5.32;;;17.40;99.90;;;;;;5071615;28;20154;-74
2022/04/06 12:18:44;;;;;;;5.50;5.00;;;17.50;99.90;;;;;;5070395;28;20508;-75
2022/04/06 12:21:23;;;;;;;4.55;4.13;;;17.40;99.90;;;;;;5071707;28;20023;-75
2022/04/06 12:23:52;;;;;;;4.93;3.88;;;17.40;99.90;;;;;;5070311;28;20111;-75
2022/04/06 12:26:21;;;;;;;5.45;4.90;;;17.50;99.90;;;;;;5071106;28;20020;-75
2022/04/06 12:28:51;;;;;;;4.57;4.15;;;17.40;99.90;;;;;;5075172;28;20025;-76
2022/04/06 12:31:31;;;;;;;5.78;5.07;;;17.50;99.90;;;;;;5075174;28;20012;-76
2022/04/06 12:33:59;;;;;;;5.68;5.10;;;17.40;99.90;;;;;;5075015;28;20028;-75
2022/04/06 12:36:30;;;;;;;5.30;4.53;;;17.40;99.90;;;;;;5075099;28;20028;-75
2022/04/06 12:38:58;;;;;;;5.95;4.70;;;17.40;99.90;;;;;;5075330;28;20052;-77
2022/04/06 12:41:26;;;;;;;6.03;5.07;;;17.40;99.90;;;;;;5075247;28;20025;-76
2022/04/06 12:43:54;;;;;;;9.00;5.60;;;17.40;99.90;;;;;;5075136;28;20016;-75
2022/04/06 12:46:44;;;;;;;6.68;5.30;;;17.50;99.90;;;;;;5075020;28;20031;-75
2022/04/06 12:49:19;;;;;;;5.15;4.65;;;17.50;99.90;;;;;;5075063;28;20017;-75
2022/04/06 12:51:46;;;;;;;6.65;4.93;;;17.50;99.90;;;;;;5074942;28;20040;-76
2022/04/06 12:54:16;;;;;;;7.15;5.20;;;17.50;99.90;;;;;;5074846;28;20384;-75
2022/04/06 12:57:05;;;;;;;5.93;4.93;;;17.50;99.90;;;;;;5073600;28;20027;-76
2022/04/06 12:59:43;;;;;;;6.15;5.28;;;17.50;99.90;;;;;;5053558;28;20056;-76
2022/04/06 13:02:52;;;;;;;6.22;5.35;;;17.40;99.90;;;;;;5073369;28;20098;-76
2022/04/06 13:05:21;;;;;;;5.03;4.53;;;17.40;99.90;;;;;;5071811;28;20052;-75
2022/04/06 13:07:51;;;;;;;5.40;4.78;;;17.50;99.90;;;;;;5073503;28;20528;-76
2022/04/06 13:10:21;;;;;;;5.83;4.93;;;17.50;99.90;;;;;;5074633;28;20099;-75